Allerton, Illinois
Current Conditions -  °F | °C
As of 7:53 AM on Thursday 30 Oct 2014 (Local Time) from KCMI Reporting Station
Clear Clear  
Wind Chill: 29°   Ceiling: Unl
Heat Index: 33°   Visibility: 10mi
Dew Point: 30°   Wind: 5mph
Humidity: 89%   Direction: 180°S
Pressure: 30.16"   Gusts: NA
Location:  39.91°N, 87.94°W
Report Text: KCMI 301253Z 18004KT 10SM CLR 01/M01 A3016 RMK AO2 SLP219 T00061011 $
Loading
Personal Weather Stations






























Interactive Weather Map New forecast layout! Learn more

10-Day Weather Forecast

Advertisements
Track Severe Weather on mobile